sensor_id;sensor_type;location;lat;lon;timestamp;pressure;altitude;pressure_sealevel;temperature;humidity
70690;BME280;58267;51.156;17.044;2023-11-19T00:00:23;100772.98;;;7.86;40.94
70690;BME280;58267;51.156;17.044;2023-11-19T00:02:49;100769.37;;;8.19;40.71
70690;BME280;58267;51.156;17.044;2023-11-19T00:05:15;100770.59;;;8.20;40.66
70690;BME280;58267;51.156;17.044;2023-11-19T00:07:40;100760.79;;;7.99;40.64
70690;BME280;58267;51.156;17.044;2023-11-19T00:10:07;100747.58;;;7.88;40.79
70690;BME280;58267;51.156;17.044;2023-11-19T00:12:30;100739.54;;;7.78;40.83
70690;BME280;58267;51.156;17.044;2023-11-19T00:14:56;100733.09;;;7.90;40.41
70690;BME280;58267;51.156;17.044;2023-11-19T00:17:21;100727.04;;;7.75;40.58
70690;BME280;58267;51.156;17.044;2023-11-19T00:19:46;100719.62;;;7.45;41.03
70690;BME280;58267;51.156;17.044;2023-11-19T00:22:12;100715.73;;;7.72;40.92
70690;BME280;58267;51.156;17.044;2023-11-19T00:24:37;100715.19;;;7.48;41.03
70690;BME280;58267;51.156;17.044;2023-11-19T00:27:03;100706.53;;;7.57;41.21
70690;BME280;58267;51.156;17.044;2023-11-19T00:29:28;100705.07;;;7.76;41.39
70690;BME280;58267;51.156;17.044;2023-11-19T00:31:54;100696.19;;;7.55;41.35
70690;BME280;58267;51.156;17.044;2023-11-19T00:34:19;100693.74;;;7.73;41.57
70690;BME280;58267;51.156;17.044;2023-11-19T00:36:50;100685.13;;;7.49;41.58
70690;BME280;58267;51.156;17.044;2023-11-19T00:39:10;100676.23;;;7.51;41.50
70690;BME280;58267;51.156;17.044;2023-11-19T00:41:35;100680.53;;;7.48;41.57
70690;BME280;58267;51.156;17.044;2023-11-19T00:44:01;100679.17;;;7.72;41.54
70690;BME280;58267;51.156;17.044;2023-11-19T00:46:26;100671.17;;;7.86;41.29
70690;BME280;58267;51.156;17.044;2023-11-19T00:48:51;100659.91;;;7.61;41.28
70690;BME280;58267;51.156;17.044;2023-11-19T00:51:17;100649.95;;;7.48;41.84
70690;BME280;58267;51.156;17.044;2023-11-19T00:53:43;100646.06;;;7.66;41.53
70690;BME280;58267;51.156;17.044;2023-11-19T00:56:10;100648.01;;;7.72;41.34
70690;BME280;58267;51.156;17.044;2023-11-19T00:58:33;100651.26;;;7.13;41.90
70690;BME280;58267;51.156;17.044;2023-11-19T01:00:58;100650.54;;;7.31;42.00
70690;BME280;58267;51.156;17.044;2023-11-19T01:03:24;100640.97;;;7.41;41.74
70690;BME280;58267;51.156;17.044;2023-11-19T01:05:50;100629.90;;;7.31;41.55
70690;BME280;58267;51.156;17.044;2023-11-19T01:08:15;100618.12;;;7.55;41.52
70690;BME280;58267;51.156;17.044;2023-11-19T01:10:40;100603.67;;;7.14;42.36
70690;BME280;58267;51.156;17.044;2023-11-19T01:13:06;100596.28;;;7.14;41.56
70690;BME280;58267;51.156;17.044;2023-11-19T01:15:32;100589.43;;;7.71;41.68
70690;BME280;58267;51.156;17.044;2023-11-19T01:17:58;100580.53;;;7.65;41.02
70690;BME280;58267;51.156;17.044;2023-11-19T01:20:23;100570.90;;;7.44;41.23
70690;BME280;58267;51.156;17.044;2023-11-19T01:22:49;100567.02;;;7.57;41.46
70690;BME280;58267;51.156;17.044;2023-11-19T01:25:14;100559.72;;;7.12;41.26
70690;BME280;58267;51.156;17.044;2023-11-19T01:27:40;100550.31;;;7.15;41.15
70690;BME280;58267;51.156;17.044;2023-11-19T01:30:07;100543.38;;;7.33;41.25
70690;BME280;58267;51.156;17.044;2023-11-19T01:32:31;100550.90;;;7.50;40.95
70690;BME280;58267;51.156;17.044;2023-11-19T01:34:56;100551.11;;;7.45;41.08
70690;BME280;58267;51.156;17.044;2023-11-19T01:37:22;100545.19;;;7.62;40.81
70690;BME280;58267;51.156;17.044;2023-11-19T01:39:48;100537.60;;;7.42;41.03
70690;BME280;58267;51.156;17.044;2023-11-19T01:42:13;100527.09;;;7.39;41.10
70690;BME280;58267;51.156;17.044;2023-11-19T01:44:39;100528.77;;;7.44;41.03
70690;BME280;58267;51.156;17.044;2023-11-19T01:47:05;100529.55;;;7.28;41.28
70690;BME280;58267;51.156;17.044;2023-11-19T01:49:30;100531.59;;;7.38;41.27
70690;BME280;58267;51.156;17.044;2023-11-19T01:51:55;100533.84;;;7.41;41.05
70690;BME280;58267;51.156;17.044;2023-11-19T01:54:20;100532.30;;;7.06;41.17
70690;BME280;58267;51.156;17.044;2023-11-19T01:56:46;100524.14;;;7.02;41.05
70690;BME280;58267;51.156;17.044;2023-11-19T01:59:12;100520.42;;;7.26;40.74
70690;BME280;58267;51.156;17.044;2023-11-19T02:01:37;100512.34;;;7.25;40.78
70690;BME280;58267;51.156;17.044;2023-11-19T02:04:03;100507.78;;;7.34;40.60
70690;BME280;58267;51.156;17.044;2023-11-19T02:06:28;100496.91;;;7.71;40.72
70690;BME280;58267;51.156;17.044;2023-11-19T02:08:53;100497.51;;;7.56;40.67
70690;BME280;58267;51.156;17.044;2023-11-19T02:11:18;100501.85;;;7.53;40.72
70690;BME280;58267;51.156;17.044;2023-11-19T02:13:44;100508.82;;;7.37;40.58
70690;BME280;58267;51.156;17.044;2023-11-19T02:16:09;100504.52;;;7.02;40.96
70690;BME280;58267;51.156;17.044;2023-11-19T02:18:34;100492.50;;;7.57;40.59
70690;BME280;58267;51.156;17.044;2023-11-19T02:21:00;100487.32;;;7.53;40.52
70690;BME280;58267;51.156;17.044;2023-11-19T02:23:27;100480.37;;;7.09;40.71
70690;BME280;58267;51.156;17.044;2023-11-19T02:26:02;100476.23;;;7.65;40.33
70690;BME280;58267;51.156;17.044;2023-11-19T02:28:17;100478.17;;;7.60;40.70
70690;BME280;58267;51.156;17.044;2023-11-19T02:30:42;100474.04;;;7.54;40.45
70690;BME280;58267;51.156;17.044;2023-11-19T02:33:08;100472.63;;;7.43;40.38
70690;BME280;58267;51.156;17.044;2023-11-19T02:35:34;100466.46;;;7.52;40.15
70690;BME280;58267;51.156;17.044;2023-11-19T02:38:00;100454.83;;;7.41;40.56
70690;BME280;58267;51.156;17.044;2023-11-19T02:40:25;100447.06;;;7.33;40.53
70690;BME280;58267;51.156;17.044;2023-11-19T02:42:51;100447.00;;;7.77;40.25
70690;BME280;58267;51.156;17.044;2023-11-19T02:45:16;100448.02;;;7.51;40.31
70690;BME280;58267;51.156;17.044;2023-11-19T02:47:42;100449.69;;;7.59;40.08
70690;BME280;58267;51.156;17.044;2023-11-19T02:50:08;100442.93;;;7.58;40.17
70690;BME280;58267;51.156;17.044;2023-11-19T02:52:32;100441.85;;;7.70;39.92
70690;BME280;58267;51.156;17.044;2023-11-19T02:54:58;100445.47;;;7.44;39.81
70690;BME280;58267;51.156;17.044;2023-11-19T02:57:24;100435.75;;;7.37;39.85
70690;BME280;58267;51.156;17.044;2023-11-19T02:59:49;100425.77;;;7.62;39.81
70690;BME280;58267;51.156;17.044;2023-11-19T03:02:15;100424.04;;;7.60;39.89
70690;BME280;58267;51.156;17.044;2023-11-19T03:04:40;100418.22;;;7.75;39.64
70690;BME280;58267;51.156;17.044;2023-11-19T03:07:06;100403.92;;;7.53;40.08
70690;BME280;58267;51.156;17.044;2023-11-19T03:09:31;100395.95;;;7.60;39.87
70690;BME280;58267;51.156;17.044;2023-11-19T03:11:57;100392.52;;;7.35;39.87
70690;BME280;58267;51.156;17.044;2023-11-19T03:14:23;100381.44;;;7.57;39.94
70690;BME280;58267;51.156;17.044;2023-11-19T03:16:48;100379.94;;;7.54;39.92
70690;BME280;58267;51.156;17.044;2023-11-19T03:19:14;100373.47;;;7.35;40.26
70690;BME280;58267;51.156;17.044;2023-11-19T03:21:38;100362.74;;;6.95;40.62
70690;BME280;58267;51.156;17.044;2023-11-19T03:24:04;100367.75;;;6.85;40.71
70690;BME280;58267;51.156;17.044;2023-11-19T03:26:30;100373.61;;;6.78;40.76
70690;BME280;58267;51.156;17.044;2023-11-19T03:28:56;100375.35;;;6.61;40.91
70690;BME280;58267;51.156;17.044;2023-11-19T03:31:22;100366.26;;;6.56;41.06
70690;BME280;58267;51.156;17.044;2023-11-19T03:33:47;100362.67;;;6.55;41.17
70690;BME280;58267;51.156;17.044;2023-11-19T03:36:13;100364.21;;;6.79;41.13
70690;BME280;58267;51.156;17.044;2023-11-19T03:38:39;100360.33;;;6.51;41.27
70690;BME280;58267;51.156;17.044;2023-11-19T03:41:10;100350.80;;;6.55;41.24
70690;BME280;58267;51.156;17.044;2023-11-19T03:43:31;100346.98;;;6.68;41.14
70690;BME280;58267;51.156;17.044;2023-11-19T03:46:00;100331.66;;;6.64;41.19
70690;BME280;58267;51.156;17.044;2023-11-19T03:48:21;100330.71;;;6.47;41.32
70690;BME280;58267;51.156;17.044;2023-11-19T03:50:46;100334.14;;;6.10;41.51
70690;BME280;58267;51.156;17.044;2023-11-19T03:53:12;100331.65;;;6.31;41.14
70690;BME280;58267;51.156;17.044;2023-11-19T03:55:37;100312.94;;;6.47;41.20
70690;BME280;58267;51.156;17.044;2023-11-19T03:58:02;100304.99;;;6.50;41.08
70690;BME280;58267;51.156;17.044;2023-11-19T04:00:27;100298.28;;;6.77;41.02
70690;BME280;58267;51.156;17.044;2023-11-19T04:02:53;100295.33;;;6.63;40.89
70690;BME280;58267;51.156;17.044;2023-11-19T04:05:18;100298.34;;;6.65;40.75
70690;BME280;58267;51.156;17.044;2023-11-19T04:07:43;100299.97;;;6.41;40.72
70690;BME280;58267;51.156;17.044;2023-11-19T04:10:09;100294.46;;;6.31;40.91
70690;BME280;58267;51.156;17.044;2023-11-19T04:12:35;100280.46;;;6.70;40.68
70690;BME280;58267;51.156;17.044;2023-11-19T04:15:00;100267.70;;;6.56;40.80
70690;BME280;58267;51.156;17.044;2023-11-19T04:17:25;100257.18;;;6.61;40.64
70690;BME280;58267;51.156;17.044;2023-11-19T04:19:51;100253.13;;;6.43;40.74
70690;BME280;58267;51.156;17.044;2023-11-19T04:22:16;100239.26;;;6.47;40.71
70690;BME280;58267;51.156;17.044;2023-11-19T04:24:41;100230.46;;;6.55;40.56
70690;BME280;58267;51.156;17.044;2023-11-19T04:27:07;100221.87;;;6.88;40.37
70690;BME280;58267;51.156;17.044;2023-11-19T04:29:32;100211.73;;;6.31;40.61
70690;BME280;58267;51.156;17.044;2023-11-19T04:31:58;100200.17;;;6.42;40.63
70690;BME280;58267;51.156;17.044;2023-11-19T04:34:23;100191.40;;;6.59;40.67
70690;BME280;58267;51.156;17.044;2023-11-19T04:36:48;100176.27;;;6.18;40.92
70690;BME280;58267;51.156;17.044;2023-11-19T04:39:14;100170.32;;;6.53;40.77
70690;BME280;58267;51.156;17.044;2023-11-19T04:41:46;100175.19;;;6.47;40.81
70690;BME280;58267;51.156;17.044;2023-11-19T04:44:05;100172.91;;;6.49;40.69
70690;BME280;58267;51.156;17.044;2023-11-19T04:46:31;100172.64;;;6.44;40.46
70690;BME280;58267;51.156;17.044;2023-11-19T04:48:56;100174.41;;;6.61;40.74
70690;BME280;58267;51.156;17.044;2023-11-19T04:51:22;100173.95;;;6.80;40.45
70690;BME280;58267;51.156;17.044;2023-11-19T04:53:47;100168.31;;;6.59;40.47
70690;BME280;58267;51.156;17.044;2023-11-19T04:56:13;100168.09;;;6.64;40.46
70690;BME280;58267;51.156;17.044;2023-11-19T04:58:39;100162.80;;;6.50;40.41
70690;BME280;58267;51.156;17.044;2023-11-19T05:01:04;100158.86;;;6.41;40.43
70690;BME280;58267;51.156;17.044;2023-11-19T05:03:29;100154.78;;;6.42;40.48
70690;BME280;58267;51.156;17.044;2023-11-19T05:05:55;100152.26;;;6.58;40.27
70690;BME280;58267;51.156;17.044;2023-11-19T05:08:20;100151.80;;;7.00;40.31
70690;BME280;58267;51.156;17.044;2023-11-19T05:10:45;100150.08;;;6.81;40.26
70690;BME280;58267;51.156;17.044;2023-11-19T05:13:11;100144.23;;;6.80;40.21
70690;BME280;58267;51.156;17.044;2023-11-19T05:15:37;100142.82;;;6.73;40.22
70690;BME280;58267;51.156;17.044;2023-11-19T05:18:03;100130.78;;;6.46;40.29
70690;BME280;58267;51.156;17.044;2023-11-19T05:20:28;100117.90;;;6.38;40.51
70690;BME280;58267;51.156;17.044;2023-11-19T05:22:53;100107.11;;;6.66;40.84
70690;BME280;58267;51.156;17.044;2023-11-19T05:25:19;100107.35;;;6.57;40.53
70690;BME280;58267;51.156;17.044;2023-11-19T05:27:45;100105.73;;;6.80;40.57
70690;BME280;58267;51.156;17.044;2023-11-19T05:30:11;100104.87;;;6.46;40.74
70690;BME280;58267;51.156;17.044;2023-11-19T05:32:36;100101.36;;;6.41;40.83
70690;BME280;58267;51.156;17.044;2023-11-19T05:35:02;100096.05;;;6.65;40.76
70690;BME280;58267;51.156;17.044;2023-11-19T05:37:26;100092.09;;;6.54;40.55
70690;BME280;58267;51.156;17.044;2023-11-19T05:39:51;100091.39;;;6.36;40.59
70690;BME280;58267;51.156;17.044;2023-11-19T05:42:17;100089.59;;;6.42;40.49
70690;BME280;58267;51.156;17.044;2023-11-19T05:44:42;100091.93;;;6.73;40.51
70690;BME280;58267;51.156;17.044;2023-11-19T05:47:08;100096.45;;;6.61;40.75
70690;BME280;58267;51.156;17.044;2023-11-19T05:49:34;100089.72;;;6.32;40.69
70690;BME280;58267;51.156;17.044;2023-11-19T05:51:59;100081.10;;;6.45;40.59
70690;BME280;58267;51.156;17.044;2023-11-19T05:54:24;100081.84;;;6.50;40.56
70690;BME280;58267;51.156;17.044;2023-11-19T05:56:50;100075.19;;;6.80;40.77
70690;BME280;58267;51.156;17.044;2023-11-19T05:59:15;100071.44;;;6.43;40.66
70690;BME280;58267;51.156;17.044;2023-11-19T06:01:41;100077.90;;;6.52;40.59
70690;BME280;58267;51.156;17.044;2023-11-19T06:04:06;100076.79;;;6.72;40.39
70690;BME280;58267;51.156;17.044;2023-11-19T06:06:32;100073.63;;;6.68;40.40
70690;BME280;58267;51.156;17.044;2023-11-19T06:08:57;100068.56;;;6.67;40.45
70690;BME280;58267;51.156;17.044;2023-11-19T06:11:22;100065.43;;;6.49;40.68
70690;BME280;58267;51.156;17.044;2023-11-19T06:13:48;100054.56;;;6.60;40.62
70690;BME280;58267;51.156;17.044;2023-11-19T06:16:14;100048.31;;;6.45;40.94
70690;BME280;58267;51.156;17.044;2023-11-19T06:18:39;100046.72;;;6.83;40.95
70690;BME280;58267;51.156;17.044;2023-11-19T06:21:05;100049.29;;;6.81;40.79
70690;BME280;58267;51.156;17.044;2023-11-19T06:23:30;100053.72;;;7.25;40.46
70690;BME280;58267;51.156;17.044;2023-11-19T06:26:00;100047.14;;;6.75;40.47
70690;BME280;58267;51.156;17.044;2023-11-19T06:28:20;100039.73;;;7.09;40.46
70690;BME280;58267;51.156;17.044;2023-11-19T06:30:45;100034.31;;;6.90;40.70
70690;BME280;58267;51.156;17.044;2023-11-19T06:33:13;100023.83;;;6.99;40.71
70690;BME280;58267;51.156;17.044;2023-11-19T06:35:36;100018.24;;;6.93;40.59
70690;BME280;58267;51.156;17.044;2023-11-19T06:38:02;100008.19;;;7.08;40.61
70690;BME280;58267;51.156;17.044;2023-11-19T06:40:27;100009.27;;;6.93;41.20
70690;BME280;58267;51.156;17.044;2023-11-19T06:42:53;100000.05;;;6.84;40.72
70690;BME280;58267;51.156;17.044;2023-11-19T06:45:19;100008.17;;;7.03;41.14
70690;BME280;58267;51.156;17.044;2023-11-19T06:47:44;100002.68;;;6.73;41.01
70690;BME280;58267;51.156;17.044;2023-11-19T06:50:10;99993.44;;;6.51;41.39
70690;BME280;58267;51.156;17.044;2023-11-19T06:52:35;99978.77;;;6.90;41.54
70690;BME280;58267;51.156;17.044;2023-11-19T06:55:01;99977.06;;;6.81;41.72
70690;BME280;58267;51.156;17.044;2023-11-19T06:57:26;99966.62;;;6.71;41.39
70690;BME280;58267;51.156;17.044;2023-11-19T06:59:52;99964.64;;;6.97;41.01
70690;BME280;58267;51.156;17.044;2023-11-19T07:02:17;99954.11;;;6.50;41.26
70690;BME280;58267;51.156;17.044;2023-11-19T07:04:43;99949.07;;;6.88;41.12
70690;BME280;58267;51.156;17.044;2023-11-19T07:07:08;99950.00;;;6.72;40.86
70690;BME280;58267;51.156;17.044;2023-11-19T07:09:34;99955.48;;;7.04;40.99
70690;BME280;58267;51.156;17.044;2023-11-19T07:12:02;99950.36;;;7.10;40.57
70690;BME280;58267;51.156;17.044;2023-11-19T07:14:27;99956.40;;;7.09;40.66
70690;BME280;58267;51.156;17.044;2023-11-19T07:16:52;99942.21;;;7.14;40.71
70690;BME280;58267;51.156;17.044;2023-11-19T07:19:17;99938.45;;;7.20;40.64
70690;BME280;58267;51.156;17.044;2023-11-19T07:21:44;99930.09;;;7.27;40.61
70690;BME280;58267;51.156;17.044;2023-11-19T07:24:09;99931.19;;;7.46;40.42
70690;BME280;58267;51.156;17.044;2023-11-19T07:26:33;99923.80;;;7.00;40.72
70690;BME280;58267;51.156;17.044;2023-11-19T07:28:59;99923.50;;;7.19;40.42
70690;BME280;58267;51.156;17.044;2023-11-19T07:31:25;99926.25;;;7.20;40.31
70690;BME280;58267;51.156;17.044;2023-11-19T07:33:50;99930.52;;;7.07;40.45
70690;BME280;58267;51.156;17.044;2023-11-19T07:36:16;99924.14;;;7.32;40.42
70690;BME280;58267;51.156;17.044;2023-11-19T07:38:41;99932.10;;;7.29;40.53
70690;BME280;58267;51.156;17.044;2023-11-19T07:41:07;99928.22;;;7.05;40.58
70690;BME280;58267;51.156;17.044;2023-11-19T07:43:33;99922.20;;;7.23;40.56
70690;BME280;58267;51.156;17.044;2023-11-19T07:45:59;99917.08;;;7.24;40.72
70690;BME280;58267;51.156;17.044;2023-11-19T07:48:24;99913.40;;;7.34;40.65
70690;BME280;58267;51.156;17.044;2023-11-19T07:50:50;99905.18;;;7.34;40.42
70690;BME280;58267;51.156;17.044;2023-11-19T07:53:16;99897.95;;;7.44;40.64
70690;BME280;58267;51.156;17.044;2023-11-19T07:55:41;99907.08;;;7.22;40.69
70690;BME280;58267;51.156;17.044;2023-11-19T07:58:06;99901.59;;;7.10;40.80
70690;BME280;58267;51.156;17.044;2023-11-19T08:00:32;99906.14;;;7.24;40.76
70690;BME280;58267;51.156;17.044;2023-11-19T08:02:57;99901.33;;;7.36;40.67
70690;BME280;58267;51.156;17.044;2023-11-19T08:05:22;99893.68;;;7.45;40.60
70690;BME280;58267;51.156;17.044;2023-11-19T08:07:48;99892.38;;;7.45;40.84
70690;BME280;58267;51.156;17.044;2023-11-19T08:10:14;99893.21;;;7.32;40.89
70690;BME280;58267;51.156;17.044;2023-11-19T08:12:40;99884.24;;;7.27;40.85
70690;BME280;58267;51.156;17.044;2023-11-19T08:15:05;99876.59;;;7.52;41.18
70690;BME280;58267;51.156;17.044;2023-11-19T08:17:30;99878.57;;;7.25;40.89
70690;BME280;58267;51.156;17.044;2023-11-19T08:19:56;99874.72;;;7.33;40.79
70690;BME280;58267;51.156;17.044;2023-11-19T08:22:22;99868.93;;;7.41;40.63
70690;BME280;58267;51.156;17.044;2023-11-19T08:24:48;99865.13;;;7.40;40.71
70690;BME280;58267;51.156;17.044;2023-11-19T08:27:13;99858.00;;;7.29;40.94
70690;BME280;58267;51.156;17.044;2023-11-19T08:29:39;99853.15;;;7.54;41.02
70690;BME280;58267;51.156;17.044;2023-11-19T08:32:05;99849.63;;;7.12;41.30
70690;BME280;58267;51.156;17.044;2023-11-19T08:34:29;99844.76;;;7.20;41.49
70690;BME280;58267;51.156;17.044;2023-11-19T08:36:55;99833.97;;;7.36;41.39
70690;BME280;58267;51.156;17.044;2023-11-19T08:39:20;99828.34;;;7.39;41.84
70690;BME280;58267;51.156;17.044;2023-11-19T08:41:46;99814.54;;;6.65;42.88
70690;BME280;58267;51.156;17.044;2023-11-19T08:44:11;99815.52;;;7.08;42.32
70690;BME280;58267;51.156;17.044;2023-11-19T08:46:36;99807.33;;;7.35;42.04
70690;BME280;58267;51.156;17.044;2023-11-19T08:49:02;99803.10;;;7.23;42.00
70690;BME280;58267;51.156;17.044;2023-11-19T08:51:28;99799.59;;;6.89;41.91
70690;BME280;58267;51.156;17.044;2023-11-19T08:53:54;99794.14;;;6.65;42.32
70690;BME280;58267;51.156;17.044;2023-11-19T08:56:20;99788.69;;;6.74;42.07
70690;BME280;58267;51.156;17.044;2023-11-19T08:58:45;99787.76;;;6.87;42.25
70690;BME280;58267;51.156;17.044;2023-11-19T09:01:11;99792.15;;;7.02;42.34
70690;BME280;58267;51.156;17.044;2023-11-19T09:03:36;99790.76;;;7.09;42.24
70690;BME280;58267;51.156;17.044;2023-11-19T09:06:02;99784.55;;;6.97;42.22
70690;BME280;58267;51.156;17.044;2023-11-19T09:08:28;99779.15;;;7.03;42.30
70690;BME280;58267;51.156;17.044;2023-11-19T09:10:53;99763.96;;;7.03;42.49
70690;BME280;58267;51.156;17.044;2023-11-19T09:13:18;99765.94;;;6.88;42.64
70690;BME280;58267;51.156;17.044;2023-11-19T09:15:43;99773.98;;;7.02;42.73
70690;BME280;58267;51.156;17.044;2023-11-19T09:18:08;99773.92;;;6.92;43.01
70690;BME280;58267;51.156;17.044;2023-11-19T09:20:34;99769.29;;;6.93;42.95
70690;BME280;58267;51.156;17.044;2023-11-19T09:22:59;99771.82;;;7.18;42.91
70690;BME280;58267;51.156;17.044;2023-11-19T09:25:25;99766.90;;;7.33;42.84
70690;BME280;58267;51.156;17.044;2023-11-19T09:27:51;99753.95;;;7.49;42.83
70690;BME280;58267;51.156;17.044;2023-11-19T09:30:16;99753.57;;;7.41;42.51
70690;BME280;58267;51.156;17.044;2023-11-19T09:32:41;99753.26;;;7.47;42.42
70690;BME280;58267;51.156;17.044;2023-11-19T09:35:07;99754.03;;;7.78;42.36
70690;BME280;58267;51.156;17.044;2023-11-19T09:37:32;99746.41;;;7.48;42.31
70690;BME280;58267;51.156;17.044;2023-11-19T09:39:58;99743.46;;;7.92;42.37
70690;BME280;58267;51.156;17.044;2023-11-19T09:42:24;99742.28;;;7.68;42.43
70690;BME280;58267;51.156;17.044;2023-11-19T09:44:49;99739.43;;;7.23;42.95
70690;BME280;58267;51.156;17.044;2023-11-19T09:47:14;99734.76;;;7.61;42.80
70690;BME280;58267;51.156;17.044;2023-11-19T09:49:40;99731.58;;;7.68;42.82
70690;BME280;58267;51.156;17.044;2023-11-19T09:52:06;99719.53;;;7.62;42.73
70690;BME280;58267;51.156;17.044;2023-11-19T09:54:31;99713.58;;;7.87;42.64
70690;BME280;58267;51.156;17.044;2023-11-19T09:56:58;99704.09;;;7.66;42.72
70690;BME280;58267;51.156;17.044;2023-11-19T09:59:22;99696.65;;;7.95;42.86
70690;BME280;58267;51.156;17.044;2023-11-19T10:01:48;99685.18;;;7.82;43.03
70690;BME280;58267;51.156;17.044;2023-11-19T10:04:15;99677.46;;;7.97;42.71
70690;BME280;58267;51.156;17.044;2023-11-19T10:06:38;99665.31;;;7.95;42.86
70690;BME280;58267;51.156;17.044;2023-11-19T10:09:03;99657.92;;;7.66;43.11
70690;BME280;58267;51.156;17.044;2023-11-19T10:11:29;99656.78;;;7.74;42.97
70690;BME280;58267;51.156;17.044;2023-11-19T10:13:55;99657.43;;;7.90;43.26
70690;BME280;58267;51.156;17.044;2023-11-19T10:16:29;99661.12;;;7.57;43.51
70690;BME280;58267;51.156;17.044;2023-11-19T10:18:46;99654.28;;;7.90;43.30
70690;BME280;58267;51.156;17.044;2023-11-19T10:21:12;99648.33;;;8.00;43.36
70690;BME280;58267;51.156;17.044;2023-11-19T10:26:03;99637.47;;;8.14;43.15
70690;BME280;58267;51.156;17.044;2023-11-19T10:28:27;99623.95;;;8.13;43.43
70690;BME280;58267;51.156;17.044;2023-11-19T10:30:57;99612.25;;;8.35;43.17
70690;BME280;58267;51.156;17.044;2023-11-19T10:33:17;99613.08;;;8.48;43.30
70690;BME280;58267;51.156;17.044;2023-11-19T10:35:51;99604.03;;;8.06;43.64
70690;BME280;58267;51.156;17.044;2023-11-19T10:38:13;99598.72;;;7.95;44.02
70690;BME280;58267;51.156;17.044;2023-11-19T10:40:39;99596.62;;;8.31;43.73
70690;BME280;58267;51.156;17.044;2023-11-19T10:43:02;99597.37;;;8.38;43.83
70690;BME280;58267;51.156;17.044;2023-11-19T10:45:26;99589.96;;;8.59;43.77
70690;BME280;58267;51.156;17.044;2023-11-19T10:47:52;99582.69;;;8.86;43.72
70690;BME280;58267;51.156;17.044;2023-11-19T10:50:18;99587.11;;;8.82;43.62
70690;BME280;58267;51.156;17.044;2023-11-19T10:52:44;99577.69;;;8.63;43.48
70690;BME280;58267;51.156;17.044;2023-11-19T10:55:11;99580.92;;;8.67;43.77
70690;BME280;58267;51.156;17.044;2023-11-19T10:57:36;99583.97;;;8.53;44.09
70690;BME280;58267;51.156;17.044;2023-11-19T11:00:02;99584.79;;;8.93;43.91
70690;BME280;58267;51.156;17.044;2023-11-19T11:02:27;99580.44;;;8.63;43.53
70690;BME280;58267;51.156;17.044;2023-11-19T11:04:52;99567.88;;;8.63;43.72
70690;BME280;58267;51.156;17.044;2023-11-19T11:07:21;99551.75;;;8.95;43.86
70690;BME280;58267;51.156;17.044;2023-11-19T11:09:45;99549.70;;;8.96;43.83
70690;BME280;58267;51.156;17.044;2023-11-19T11:12:10;99554.79;;;9.04;43.65
70690;BME280;58267;51.156;17.044;2023-11-19T11:14:38;99558.24;;;8.66;43.73
70690;BME280;58267;51.156;17.044;2023-11-19T11:17:02;99558.19;;;8.73;43.82
70690;BME280;58267;51.156;17.044;2023-11-19T11:19:26;99556.00;;;8.98;43.73
70690;BME280;58267;51.156;17.044;2023-11-19T11:21:54;99555.92;;;8.62;43.55
70690;BME280;58267;51.156;17.044;2023-11-19T11:24:32;99560.60;;;8.90;43.68
70690;BME280;58267;51.156;17.044;2023-11-19T11:26:53;99553.09;;;8.76;43.88
70690;BME280;58267;51.156;17.044;2023-11-19T11:29:14;99542.00;;;8.70;44.07
70690;BME280;58267;51.156;17.044;2023-11-19T11:31:39;99538.38;;;8.93;43.91
70690;BME280;58267;51.156;17.044;2023-11-19T11:34:09;99534.75;;;8.77;44.22
70690;BME280;58267;51.156;17.044;2023-11-19T11:36:25;99531.58;;;8.53;44.56
70690;BME280;58267;51.156;17.044;2023-11-19T11:38:51;99527.03;;;8.44;45.04
70690;BME280;58267;51.156;17.044;2023-11-19T11:41:17;99523.81;;;8.79;44.67
70690;BME280;58267;51.156;17.044;2023-11-19T11:43:46;99516.15;;;8.64;44.60
70690;BME280;58267;51.156;17.044;2023-11-19T11:46:07;99517.31;;;8.89;44.43
70690;BME280;58267;51.156;17.044;2023-11-19T11:48:32;99521.05;;;10.79;56.96
70690;BME280;58267;51.156;17.044;2023-11-19T11:50:58;99518.14;;;12.69;39.92
70690;BME280;58267;51.156;17.044;2023-11-19T11:53:24;99515.41;;;11.52;40.48
70690;BME280;58267;51.156;17.044;2023-11-19T11:55:54;99517.83;;;10.98;40.88
70690;BME280;58267;51.156;17.044;2023-11-19T11:58:15;99515.48;;;10.52;41.45
70690;BME280;58267;51.156;17.044;2023-11-19T12:00:40;99514.38;;;10.31;41.77
70690;BME280;58267;51.156;17.044;2023-11-19T12:03:06;99512.94;;;10.05;41.97
70690;BME280;58267;51.156;17.044;2023-11-19T12:05:31;99511.64;;;9.75;42.37
70690;BME280;58267;51.156;17.044;2023-11-19T12:07:57;99509.37;;;9.79;42.40
70690;BME280;58267;51.156;17.044;2023-11-19T12:10:22;99504.06;;;9.88;42.59
70690;BME280;58267;51.156;17.044;2023-11-19T12:12:47;99501.21;;;9.51;42.88
70690;BME280;58267;51.156;17.044;2023-11-19T12:15:13;99498.62;;;9.69;43.07
70690;BME280;58267;51.156;17.044;2023-11-19T12:17:43;99496.44;;;9.95;43.16
70690;BME280;58267;51.156;17.044;2023-11-19T12:20:06;99492.27;;;9.89;43.36
70690;BME280;58267;51.156;17.044;2023-11-19T12:22:29;99481.96;;;9.79;43.23
70690;BME280;58267;51.156;17.044;2023-11-19T12:24:55;99481.44;;;9.64;43.54
70690;BME280;58267;51.156;17.044;2023-11-19T12:27:21;99476.15;;;9.92;43.38
70690;BME280;58267;51.156;17.044;2023-11-19T12:29:46;99480.72;;;9.83;43.25
70690;BME280;58267;51.156;17.044;2023-11-19T12:32:13;99475.44;;;9.76;43.44
70690;BME280;58267;51.156;17.044;2023-11-19T12:34:37;99471.98;;;9.81;43.38
70690;BME280;58267;51.156;17.044;2023-11-19T12:37:04;99467.18;;;9.60;43.45
70690;BME280;58267;51.156;17.044;2023-11-19T12:39:30;99458.06;;;9.85;43.63
70690;BME280;58267;51.156;17.044;2023-11-19T12:41:53;99455.27;;;10.01;43.46
70690;BME280;58267;51.156;17.044;2023-11-19T12:44:19;99446.44;;;10.17;43.49
70690;BME280;58267;51.156;17.044;2023-11-19T12:46:44;99449.24;;;10.06;43.45